Time;durP1;ratioP1;P1;durP2;ratioP2;P2;SDS_P1;SDS_P2;PMS_P1;PMS_P2;Temp;Humidity;BMP_temperature;BMP_pressure;BME280_temperature;BME280_humidity;BME280_pressure;Samples;Min_cycle;Max_cycle;Signal;HPM_P1;HPM_P2
2022/10/27 00:02:33;;;;;;;;;;;12.30;99.90;;;10.28;98.19;101033.13;10344999;28;19985;-85
2022/10/27 00:07:37;;;;;;;;;;;12.20;99.90;;;10.21;98.44;101053.25;10321850;28;19938;-84
2022/10/27 00:12:40;;;;;;;;;;;12.10;99.90;;;10.19;98.31;101044.59;10335862;28;20053;-84
2022/10/27 00:17:42;;;;;;;;;;;12.10;99.90;;;10.18;98.49;101049.06;10345119;28;19966;-85
2022/10/27 00:22:46;;;;;;;;;;;12.10;99.90;;;10.23;98.89;101046.00;10331196;28;20083;-85
2022/10/27 00:27:49;;;;;;;;;;;12.20;99.90;;;10.29;99.05;101060.53;10343690;28;19933;-85
2022/10/27 00:32:52;;;;;;;;;;;12.20;99.90;;;10.35;99.36;101058.13;10341720;28;19934;-85
2022/10/27 00:37:56;;;;;;;;;;;12.30;99.90;;;10.38;99.25;101049.88;10346130;28;19957;-85
2022/10/27 00:42:59;;;;;;;;;;;12.30;99.90;;;10.50;99.64;101063.00;10342986;28;19964;-86
2022/10/27 00:48:01;;;;;;;;;;;12.40;99.90;;;10.57;99.71;101066.72;10360035;28;19980;-85
2022/10/27 00:53:04;;;;;;;;;;;12.50;99.90;;;10.65;99.89;101061.50;10336329;28;19967;-85
2022/10/27 00:58:11;;;;;;;;;;;12.60;99.90;;;10.74;99.83;101073.09;10315083;28;19934;-85
2022/10/27 01:03:17;;;;;;;;;;;12.70;99.90;;;10.79;100.00;101074.28;10320705;28;19934;-85
2022/10/27 01:08:22;;;;;;;;;;;12.70;99.90;;;10.85;100.00;101081.69;10323579;28;19941;-85
2022/10/27 01:13:25;;;;;;;;;;;12.80;99.90;;;10.89;100.00;101085.72;10334149;28;19981;-85
2022/10/27 01:18:41;;;;;;;;;;;12.90;99.90;;;10.93;100.00;101086.28;10314961;28;19934;-85
2022/10/27 01:24:32;;;;;;;;;;;12.90;99.90;;;10.94;100.00;101093.25;10332942;28;19934;-84
2022/10/27 01:30:14;;;;;;;;;;;12.90;99.90;;;10.96;100.00;101096.59;10337452;28;19941;-85
2022/10/27 01:35:19;;;;;;;;;;;12.90;99.90;;;10.99;100.00;101102.47;10272388;28;19934;-85
2022/10/27 01:40:31;;;;;;;;;;;12.90;99.90;;;11.00;100.00;101098.00;10363847;28;20145;-85
2022/10/27 01:45:36;;;;;;;;;;;12.90;99.90;;;11.00;100.00;101092.69;10326404;28;19933;-85
2022/10/27 01:50:41;;;;;;;;;;;12.90;99.90;;;10.98;100.00;101095.50;10321228;28;20495;-85
2022/10/27 01:56:04;;;;;;;;;;;12.90;99.90;;;10.95;100.00;101102.91;10364253;28;19934;-84
2022/10/27 02:01:16;;;;;;;;;;;12.80;99.90;;;10.93;100.00;101108.38;10348980;28;19933;-85
2022/10/27 02:06:58;;;;;;;;;;;12.80;99.90;;;10.92;100.00;101117.34;10365270;28;19934;-84
2022/10/27 02:12:04;;;;;;;;;;;12.80;99.90;;;10.95;100.00;101105.56;10340474;28;20513;-84
2022/10/27 02:17:09;;;;;;;;;;;12.80;99.90;;;10.96;100.00;101096.59;10343398;28;19941;-84
2022/10/27 02:22:12;;;;;;;;;;;12.80;99.90;;;10.94;100.00;101109.22;10349975;28;19933;-85
2022/10/27 02:27:35;;;;;;;;;;;12.80;99.90;;;10.88;100.00;101110.66;10350896;28;20023;-84
2022/10/27 02:32:38;;;;;;;;;;;12.80;99.90;;;10.81;99.97;101106.06;10361225;28;19933;-85
2022/10/27 02:37:42;;;;;;;;;;;12.70;99.90;;;10.76;100.00;101101.19;10347553;28;20394;-86
2022/10/27 02:42:45;;;;;;;;;;;12.70;99.90;;;10.73;99.99;101109.44;10352543;28;20388;-85
2022/10/27 02:47:48;;;;;;;;;;;12.60;99.90;;;10.69;100.00;101105.44;10343632;28;19934;-86
2022/10/27 02:52:51;;;;;;;;;;;12.60;99.90;;;10.68;100.00;101109.06;10309048;28;19940;-85
2022/10/27 02:57:54;;;;;;;;;;;12.60;99.90;;;10.63;100.00;101111.31;10342069;28;19934;-85
2022/10/27 03:02:57;;;;;;;;;;;12.60;99.90;;;10.62;100.00;101118.47;10326368;28;19934;-85
2022/10/27 03:08:00;;;;;;;;;;;12.60;99.90;;;10.60;100.00;101124.91;10307513;28;19941;-85
2022/10/27 03:13:02;;;;;;;;;;;12.50;99.90;;;10.57;100.00;101111.91;10339765;28;19940;-85
2022/10/27 03:18:05;;;;;;;;;;;12.50;99.90;;;10.59;100.00;101117.91;10331247;28;20028;-85
2022/10/27 03:23:08;;;;;;;;;;;12.50;99.90;;;10.63;100.00;101117.47;10346596;28;20378;-85
2022/10/27 03:28:11;;;;;;;;;;;12.60;99.90;;;10.63;100.00;101121.97;10347254;28;20425;-85
2022/10/27 03:33:14;;;;;;;;;;;12.60;99.90;;;10.63;100.00;101111.31;10362907;28;20021;-85
2022/10/27 03:38:17;;;;;;;;;;;12.60;99.90;;;10.61;100.00;101123.91;10347185;28;19933;-84
2022/10/27 03:43:19;;;;;;;;;;;12.60;99.90;;;10.62;100.00;101120.28;10345614;28;19941;-85
2022/10/27 03:48:22;;;;;;;;;;;12.60;99.90;;;10.62;100.00;101144.22;10324231;28;19962;-85
2022/10/27 03:53:25;;;;;;;;;;;12.60;99.90;;;10.58;100.00;101138.34;10322975;28;19934;-86
2022/10/27 03:58:28;;;;;;;;;;;12.60;99.90;;;10.60;100.00;101132.88;10340329;28;19939;-86
2022/10/27 04:03:31;;;;;;;;;;;12.60;99.90;;;10.64;100.00;101131.59;10336646;28;20329;-85
2022/10/27 04:08:34;;;;;;;;;;;12.60;99.90;;;10.66;100.00;101142.91;10337810;28;20003;-87
2022/10/27 04:13:37;;;;;;;;;;;12.60;99.90;;;10.66;100.00;101142.91;10333144;28;19940;-89
2022/10/27 04:18:39;;;;;;;;;;;12.60;99.90;;;10.67;100.00;101144.59;10345717;28;19933;-87
2022/10/27 04:23:43;;;;;;;;;;;12.60;99.90;;;10.68;100.00;101155.09;10350575;28;19934;-89
2022/10/27 04:28:46;;;;;;;;;;;12.70;99.90;;;10.70;100.00;101150.47;10348331;28;20366;-89
2022/10/27 04:33:49;;;;;;;;;;;12.70;99.90;;;10.78;100.00;101159.53;10357266;28;19937;-89
2022/10/27 04:38:54;;;;;;;;;;;12.70;99.90;;;10.80;100.00;101169.06;10344625;28;19941;-90
2022/10/27 04:43:57;;;;;;;;;;;12.70;99.90;;;10.85;100.00;101163.28;10363133;28;20368;-90
2022/10/27 04:48:59;;;;;;;;;;;12.80;99.90;;;10.86;100.00;101157.84;10359958;28;20016;-89
2022/10/27 04:54:02;;;;;;;;;;;12.80;99.90;;;10.92;100.00;101175.84;10378221;28;19941;-90
2022/10/27 04:59:05;;;;;;;;;;;12.90;99.90;;;10.93;100.00;101169.56;10315803;28;19961;-89
2022/10/27 05:04:08;;;;;;;;;;;12.90;99.90;;;10.96;100.00;101177.22;10332711;28;19934;-89
2022/10/27 05:09:11;;;;;;;;;;;12.90;99.90;;;10.96;100.00;101176.38;10358652;28;19933;-89
2022/10/27 05:14:14;;;;;;;;;;;12.90;99.90;;;10.95;100.00;101178.22;10345079;28;19934;-89
2022/10/27 05:19:16;;;;;;;;;;;12.90;99.90;;;10.91;100.00;101183.97;10343011;28;19933;-89
2022/10/27 05:24:19;;;;;;;;;;;12.90;99.90;;;10.93;100.00;101184.69;10343965;28;19933;-90
2022/10/27 05:29:22;;;;;;;;;;;12.90;99.90;;;10.95;100.00;101188.00;10327905;28;19941;-89
2022/10/27 05:34:25;;;;;;;;;;;12.90;99.90;;;10.97;100.00;101202.00;10336486;28;19934;-89
2022/10/27 05:39:28;;;;;;;;;;;12.90;99.90;;;11.04;100.00;101204.94;10347263;28;19941;-89
2022/10/27 05:44:30;;;;;;;;;;;13.00;99.90;;;11.13;100.00;101209.34;10342543;28;19934;-88
2022/10/27 05:49:33;;;;;;;;;;;13.10;99.90;;;11.20;100.00;101213.09;10339277;28;19934;-88
2022/10/27 05:54:36;;;;;;;;;;;13.10;99.90;;;11.24;100.00;101215.31;10344117;28;20305;-88
2022/10/27 05:59:39;;;;;;;;;;;13.20;99.90;;;11.29;100.00;101209.56;10343254;28;19941;-88
2022/10/27 06:04:42;;;;;;;;;;;13.30;99.90;;;11.36;100.00;101217.78;10327567;28;19984;-88
2022/10/27 06:09:44;;;;;;;;;;;13.30;99.90;;;11.42;100.00;101226.03;10303430;28;19973;-89
2022/10/27 06:14:47;;;;;;;;;;;13.40;99.90;;;11.47;100.00;101234.41;10317755;28;19940;-88
2022/10/27 06:19:50;;;;;;;;;;;13.50;99.90;;;11.54;100.00;101245.28;10342499;28;19981;-88
2022/10/27 06:24:53;;;;;;;;;;;13.50;99.90;;;11.57;100.00;101244.16;10342292;28;20365;-87
2022/10/27 06:29:56;;;;;;;;;;;13.60;99.90;;;11.65;100.00;101252.25;10358396;28;19989;-88
2022/10/27 06:34:59;;;;;;;;;;;13.70;99.90;;;11.69;100.00;101265.09;10341738;28;19934;-87
2022/10/27 06:40:02;;;;;;;;;;;13.70;99.90;;;11.73;100.00;101276.28;10352731;28;19941;-88
2022/10/27 06:45:05;;;;;;;;;;;13.70;99.90;;;11.76;100.00;101270.69;10345487;28;19957;-88
2022/10/27 06:50:09;;;;;;;;;;;13.70;99.90;;;11.76;100.00;101268.84;10324960;28;20337;-87
2022/10/27 06:55:12;;;;;;;;;;;13.70;99.90;;;11.82;100.00;101278.09;10309259;28;19934;-87
2022/10/27 07:00:15;;;;;;;;;;;13.80;99.90;;;11.92;100.00;101284.19;10318328;28;19941;-88
2022/10/27 07:05:18;;;;;;;;;;;13.90;99.90;;;11.98;100.00;101280.09;10337776;28;19933;-87
2022/10/27 07:10:21;;;;;;;;;;;13.90;99.90;;;12.07;100.00;101300.50;10348436;28;19934;-87
2022/10/27 07:15:31;;;;;;;;;;;14.00;99.90;;;12.05;100.00;101287.34;10364854;28;20373;-87
2022/10/27 07:20:34;;;;;;;;;;;14.10;99.90;;;12.08;100.00;101296.84;10330719;28;19941;-88
2022/10/27 07:25:38;;;;;;;;;;;14.10;99.90;;;12.16;100.00;101304.91;10323561;28;19985;-87
2022/10/27 07:30:44;;;;;;;;;;;14.10;99.90;;;12.20;100.00;101314.28;10324121;28;19934;-87
2022/10/27 07:35:48;;;;;;;;;;;14.20;99.90;;;12.25;100.00;101320.00;10338847;28;19934;-87
2022/10/27 07:40:51;;;;;;;;;;;14.20;99.90;;;12.33;100.00;101330.75;10348507;28;19934;-88
2022/10/27 07:45:54;;;;;;;;;;;14.30;99.90;;;12.35;100.00;101327.09;10328421;28;19941;-87
2022/10/27 07:50:57;;;;;;;;;;;14.40;99.90;;;12.40;100.00;101332.81;10320521;28;19934;-87
2022/10/27 07:56:01;;;;;;;;;;;14.40;99.90;;;12.41;100.00;101335.31;10342320;28;19941;-87
2022/10/27 08:01:04;;;;;;;;;;;14.40;99.90;;;12.38;100.00;101346.28;10334845;28;20460;-87
2022/10/27 08:06:07;;;;;;;;;;;14.40;99.90;;;12.40;100.00;101364.78;10320704;28;19934;-87
2022/10/27 08:11:10;;;;;;;;;;;14.40;99.90;;;12.37;100.00;101368.63;10335726;28;19933;-87
2022/10/27 08:16:13;;;;;;;;;;;14.40;99.90;;;12.36;100.00;101374.94;10346175;28;19940;-88
2022/10/27 08:21:15;;;;;;;;;;;14.40;99.90;;;12.33;100.00;101368.06;10345590;28;19934;-87
2022/10/27 08:26:18;;;;;;;;;;;14.40;99.90;;;12.31;100.00;101371.88;10390872;28;20021;-87
2022/10/27 08:31:23;;;;;;;;;;;14.30;99.90;;;12.30;100.00;101371.03;10363607;28;19934;-87
2022/10/27 08:36:26;;;;;;;;;;;14.30;99.90;;;12.38;100.00;101377.44;10376197;28;19934;-87
2022/10/27 08:41:42;;;;;;;;;;;14.30;99.90;;;12.44;100.00;101385.66;10305564;28;19941;-87
2022/10/27 08:46:51;;;;;;;;;;;14.40;99.90;;;12.52;100.00;101371.56;10316392;28;19941;-87
2022/10/27 08:51:58;;;;;;;;;;;14.50;99.90;;;12.54;100.00;101367.78;10329785;28;19953;-87
2022/10/27 08:57:02;;;;;;;;;;;14.50;99.90;;;12.59;100.00;101373.50;10343868;28;19934;-87
2022/10/27 09:02:11;;;;;;;;;;;14.60;99.90;;;12.70;100.00;101376.91;10360702;28;19940;-88
2022/10/27 09:07:16;;;;;;;;;;;14.60;99.90;;;12.77;99.95;101372.63;10359346;28;20397;-87
2022/10/27 09:13:06;;;;;;;;;;;14.70;99.90;;;12.88;99.78;101380.41;10345048;28;19933;-87
2022/10/27 09:18:32;;;;;;;;;;;14.70;99.90;;;12.91;99.50;101380.09;10196172;29;19967;-88
2022/10/27 09:23:38;;;;;;;;;;;14.90;99.90;;;13.00;99.42;101370.31;10354388;28;19933;-87
2022/10/27 09:28:48;;;;;;;;;;;14.90;99.90;;;13.09;99.05;101385.41;10343923;28;19965;-87
2022/10/27 09:33:58;;;;;;;;;;;15.00;99.90;;;13.12;98.68;101383.25;10344540;28;20009;-87
2022/10/27 09:39:01;;;;;;;;;;;15.10;99.90;;;13.15;98.30;101378.63;10321001;28;20291;-87
2022/10/27 09:44:16;;;;;;;;;;;15.10;99.90;;;13.21;98.12;101372.69;10324342;28;19941;-87
2022/10/27 09:49:21;;;;;;;;;;;15.20;99.90;;;13.22;97.71;101377.03;10337069;28;19934;-87
2022/10/27 09:54:29;;;;;;;;;;;15.20;99.90;;;13.23;97.36;101384.88;10343795;28;20425;-87
2022/10/27 09:59:32;;;;;;;;;;;15.20;99.90;;;13.25;97.36;101388.22;10338402;28;20391;-87
2022/10/27 10:04:42;;;;;;;;;;;15.20;99.90;;;13.25;96.98;101387.38;10337494;28;19934;-87
2022/10/27 10:09:48;;;;;;;;;;;15.20;99.90;;;13.26;96.86;101389.09;10343498;28;19934;-87
2022/10/27 10:15:11;;;;;;;;;;;15.20;99.90;;;13.19;96.25;101393.31;10345230;28;19969;-88
2022/10/27 10:20:38;;;;;;;;;;;15.20;99.90;;;13.16;96.48;101390.97;10348954;28;20397;-86
2022/10/27 10:25:42;;;;;;;;;;;15.20;99.90;;;13.21;96.76;101391.38;10365440;28;19941;-87
2022/10/27 10:30:50;;;;;;;;;;;15.20;99.90;;;13.24;96.48;101391.06;10331181;28;20453;-87
2022/10/27 10:35:54;;;;;;;;;;;15.20;99.90;;;13.25;96.51;101393.56;10381691;28;20401;-87
2022/10/27 10:41:17;;;;;;;;;;;15.20;99.90;;;13.31;96.52;101400.09;10328774;28;19938;-87
2022/10/27 10:46:22;;;;;;;;;;;15.20;99.90;;;13.37;96.41;101394.13;10311588;28;19940;-87
2022/10/27 10:51:29;;;;;;;;;;;15.30;99.90;;;13.36;96.07;101381.78;10348403;28;19934;-87
2022/10/27 10:56:34;;;;;;;;;;;15.30;99.90;;;13.36;95.81;101385.28;10316768;28;19934;-87
2022/10/27 11:02:12;;;;;;;;;;;15.40;99.90;;;13.38;95.45;101383.31;10317916;28;19976;-86
2022/10/27 11:07:24;;;;;;;;;;;15.40;99.90;;;13.42;95.50;101378.50;10333968;28;19934;-87
2022/10/27 11:12:48;;;;;;;;;;;15.40;99.90;;;13.53;95.52;101385.41;10364436;28;19934;-87
2022/10/27 11:17:53;;;;;;;;;;;15.50;99.90;;;13.60;95.37;101379.25;10370520;28;19934;-87
2022/10/27 11:22:57;;;;;;;;;;;15.60;99.90;;;13.66;94.37;101381.28;10328110;28;20042;-87
2022/10/27 11:28:52;;;;;;;;;;;15.70;99.90;;;13.77;94.25;101382.03;10352296;28;19933;-87
2022/10/27 11:34:03;;;;;;;;;;;15.70;99.90;;;13.83;93.90;101382.22;10201385;28;20315;-87
2022/10/27 11:39:09;;;;;;;;;;;15.70;99.90;;;13.85;93.49;101366.00;10339572;28;20417;-87
2022/10/27 11:44:23;;;;;;;;;;;15.80;99.90;;;13.90;93.25;101364.53;10347013;28;20436;-87
2022/10/27 11:49:46;;;;;;;;;;;15.90;99.90;;;14.00;93.16;101356.41;10334679;28;19934;-87
2022/10/27 11:54:49;;;;;;;;;;;16.00;99.90;;;14.15;92.96;101354.78;10316053;28;19933;-87
2022/10/27 12:00:19;;;;;;;;;;;16.10;99.90;;;14.32;92.37;101352.97;10346705;28;19934;-87
2022/10/27 12:05:38;;;;;;;;;;;16.30;99.90;;;14.39;91.42;101340.63;10346485;28;20416;-87
2022/10/27 12:10:53;;;;;;;;;;;16.40;99.90;;;14.45;90.84;101342.66;10348062;28;19938;-86
2022/10/27 12:16:02;;;;;;;;;;;16.50;99.90;;;14.50;90.75;101334.13;10340303;28;19934;-86
2022/10/27 12:21:31;;;;;;;;;;;16.50;99.90;;;14.61;90.21;101328.47;10355284;28;19937;-85
2022/10/27 12:26:40;;;;;;;;;;;16.60;99.90;;;14.66;89.70;101326.13;10346409;28;19981;-85
2022/10/27 12:32:16;;;;;;;;;;;16.70;99.90;;;14.62;88.63;101319.44;10378447;28;19934;-86
2022/10/27 12:37:31;;;;;;;;;;;16.70;99.90;;;14.67;88.71;101326.97;10349003;28;20298;-86
2022/10/27 12:42:35;;;;;;;;;;;16.70;99.90;;;14.65;88.61;101323.63;10331779;28;19933;-85
2022/10/27 12:48:01;;;;;;;;;;;16.70;99.90;;;14.57;88.27;101332.47;10346870;28;19985;-87
2022/10/27 12:53:28;;;;;;;;;;;16.60;99.90;;;14.45;88.64;101331.94;10348124;28;32004;-87
2022/10/27 12:58:46;;;;;;;;;;;16.50;99.90;;;14.33;88.45;101335.91;10328573;28;19956;-87
2022/10/27 13:04:26;;;;;;;;;;;16.40;99.90;;;14.26;88.99;101334.06;10342263;28;19934;-87
2022/10/27 13:09:54;;;;;;;;;;;16.30;99.90;;;14.29;89.60;101331.09;10342916;28;19976;-88
2022/10/27 13:15:21;;;;;;;;;;;16.30;99.90;;;14.32;89.74;101326.22;10362476;28;19934;-87
2022/10/27 13:21:00;;;;;;;;;;;16.30;99.90;;;14.16;89.31;101324.38;10332852;28;20024;-89
2022/10/27 13:26:33;;;;;;;;;;;16.20;99.90;;;14.03;89.74;101329.34;10276277;28;19933;-88
2022/10/27 13:31:37;;;;;;;;;;;16.10;99.90;;;13.97;90.30;101337.16;10336059;28;20071;-87
2022/10/27 13:36:40;;;;;;;;;;;16.00;99.90;;;13.94;90.78;101335.66;10320442;28;20481;-88
2022/10/27 13:42:01;;;;;;;;;;;15.90;99.90;;;13.88;90.97;101337.16;10319261;28;19933;-87
2022/10/27 13:47:07;;;;;;;;;;;15.80;99.90;;;13.79;91.41;101339.94;10305985;28;19934;-87
2022/10/27 13:52:13;;;;;;;;;;;15.80;99.90;;;13.76;91.93;101348.28;10311992;28;20390;-88
2022/10/27 13:57:35;;;;;;;;;;;15.70;99.90;;;13.73;92.14;101337.91;10328463;28;19941;-88
2022/10/27 14:03:09;;;;;;;;;;;15.70;99.90;;;13.73;92.43;101352.09;10288405;28;20021;-87
2022/10/27 14:08:23;;;;;;;;;;;15.70;99.90;;;13.69;92.55;101336.59;10329527;28;20028;-87
2022/10/27 14:13:36;;;;;;;;;;;15.60;99.90;;;13.69;92.42;101336.59;10326795;28;19940;-88
2022/10/27 14:18:39;;;;;;;;;;;15.70;99.90;;;13.59;92.54;101348.22;10319444;28;19934;-88
2022/10/27 14:23:42;;;;;;;;;;;15.60;99.90;;;13.57;93.11;101344.88;10315750;28;20412;-83
2022/10/27 14:28:50;;;;;;;;;;;15.60;99.90;;;13.54;93.23;101344.34;10300247;28;19934;-82
2022/10/27 14:34:14;;;;;;;;;;;15.50;99.90;;;13.46;93.68;101347.81;10305449;28;19934;-84
2022/10/27 14:39:26;;;;;;;;;;;15.50;99.90;;;13.41;94.04;101344.78;10326481;28;20365;-84
2022/10/27 14:44:31;;;;;;;;;;;15.40;99.90;;;13.39;94.27;101346.78;10328076;28;19981;-84
2022/10/27 14:49:44;;;;;;;;;;;15.30;99.90;;;13.38;94.53;101345.94;10346793;28;19940;-83
2022/10/27 14:54:52;;;;;;;;;;;15.30;99.90;;;13.41;94.71;101350.13;10347922;28;19933;-84
2022/10/27 14:59:55;;;;;;;;;;;15.40;99.90;;;13.40;94.73;101351.13;10362722;28;19961;-84
2022/10/27 15:05:11;;;;;;;;;;;15.40;99.90;;;13.39;94.81;101352.13;10339296;28;19934;-85
2022/10/27 15:10:16;;;;;;;;;;;15.30;99.90;;;13.39;94.81;101357.47;10348428;28;19941;-84
2022/10/27 15:15:19;;;;;;;;;;;15.40;99.90;;;13.39;94.95;101346.78;10332038;28;19941;-84
2022/10/27 15:20:22;;;;;;;;;;;15.30;99.90;;;13.41;95.07;101344.78;10335691;28;20425;-84
2022/10/27 15:25:28;;;;;;;;;;;15.40;99.90;;;13.39;94.99;101342.28;10348838;28;19933;-84
2022/10/27 15:30:33;;;;;;;;;;;15.40;99.90;;;13.37;94.98;101351.41;10340568;28;20394;-84
2022/10/27 15:35:42;;;;;;;;;;;15.40;99.90;;;13.36;95.04;101353.25;10345058;28;19979;-84
2022/10/27 15:40:47;;;;;;;;;;;15.30;99.90;;;13.38;95.19;101351.28;10357668;28;20029;-84
2022/10/27 15:45:51;;;;;;;;;;;15.40;99.90;;;13.39;95.07;101354.78;10309856;28;19985;-84
2022/10/27 15:51:11;;;;;;;;;;;15.30;99.90;;;13.41;95.24;101358.13;10334086;28;19941;-84
2022/10/27 15:56:32;;;;;;;;;;;15.40;99.90;;;13.41;94.82;101359.97;10337106;28;19997;-84
2022/10/27 16:01:35;;;;;;;;;;;15.40;99.90;;;13.41;95.11;101358.13;10325778;28;19934;-84
2022/10/27 16:06:38;;;;;;;;;;;15.40;99.90;;;13.39;95.12;101358.28;10341683;28;19937;-84
2022/10/27 16:11:41;;;;;;;;;;;15.30;99.90;;;13.41;94.82;101357.28;10377202;28;19973;-83
2022/10/27 16:16:45;;;;;;;;;;;15.30;99.90;;;13.40;94.89;101361.78;10342591;28;19941;-84
2022/10/27 16:21:48;;;;;;;;;;;15.30;99.90;;;13.39;94.84;101363.63;10338091;28;20389;-84
2022/10/27 16:26:51;;;;;;;;;;;15.30;99.90;;;13.39;94.62;101357.47;10309266;28;19934;-84
2022/10/27 16:31:54;;;;;;;;;;;15.30;99.90;;;13.39;94.76;101362.81;10335524;28;19972;-84
2022/10/27 16:36:57;;;;;;;;;;;15.40;99.90;;;13.38;94.77;101358.47;10322330;28;19934;-84
2022/10/27 16:42:00;;;;;;;;;;;15.30;99.90;;;13.36;94.67;101365.78;10352150;28;19989;-84
2022/10/27 16:47:06;;;;;;;;;;;15.40;99.90;;;13.38;94.81;101371.81;10332873;28;19969;-85
2022/10/27 16:52:09;;;;;;;;;;;15.40;99.90;;;13.38;95.01;101369.97;10344972;28;19933;-84
2022/10/27 16:57:13;;;;;;;;;;;15.30;99.90;;;13.38;95.00;101377.97;10359141;28;20349;-84
2022/10/27 17:02:16;;;;;;;;;;;15.30;99.90;;;13.37;94.90;101375.44;10343155;28;19940;-85
2022/10/27 17:07:18;;;;;;;;;;;15.30;99.90;;;13.39;94.98;101378.81;10334973;28;19956;-85
2022/10/27 17:12:21;;;;;;;;;;;15.30;99.90;;;13.38;94.97;101388.66;10357738;28;19934;-84
2022/10/27 17:17:24;;;;;;;;;;;15.30;99.90;;;13.38;94.94;101387.81;10358694;28;19933;-84
2022/10/27 17:22:27;;;;;;;;;;;15.30;99.90;;;13.36;94.87;101384.47;10319972;28;19977;-84
2022/10/27 17:27:30;;;;;;;;;;;15.40;99.90;;;13.38;95.11;101390.50;10313806;28;20337;-84
2022/10/27 17:32:33;;;;;;;;;;;15.30;99.90;;;13.35;95.05;101388.97;10349961;28;19938;-84
2022/10/27 17:37:35;;;;;;;;;;;15.30;99.90;;;13.37;95.02;101407.50;10332641;28;19938;-84
2022/10/27 17:42:39;;;;;;;;;;;15.30;99.90;;;13.36;94.96;101408.50;10355314;28;19956;-85
2022/10/27 17:47:43;;;;;;;;;;;15.30;99.90;;;13.34;95.13;101403.31;10353104;28;20024;-85
2022/10/27 17:52:46;;;;;;;;;;;15.30;99.90;;;13.34;94.84;101407.81;10316856;28;19975;-86
2022/10/27 17:57:49;;;;;;;;;;;15.30;99.90;;;13.31;95.24;101408.13;10341737;28;19933;-87
2022/10/27 18:02:52;;;;;;;;;;;15.30;99.90;;;13.32;95.32;101404.47;10353629;28;19941;-84
2022/10/27 18:07:55;;;;;;;;;;;15.30;99.90;;;13.30;95.52;101401.94;10341706;28;19961;-90
2022/10/27 18:12:58;;;;;;;;;;;15.30;99.90;;;13.30;95.49;101412.63;10330709;28;19976;-87
2022/10/27 18:18:01;;;;;;;;;;;15.20;99.90;;;13.31;95.48;101405.44;10347627;28;19938;-89
2022/10/27 18:23:04;;;;;;;;;;;15.20;99.90;;;13.29;95.51;101405.59;10333239;28;19969;-90
2022/10/27 18:28:07;;;;;;;;;;;15.20;99.90;;;13.27;95.42;101407.59;10358263;28;20473;-89
2022/10/27 18:33:10;;;;;;;;;;;15.20;99.90;;;13.25;95.22;101403.41;10337059;28;19934;-89
2022/10/27 18:38:13;;;;;;;;;;;15.30;99.90;;;13.25;95.34;101403.41;10341808;28;19934;-89
2022/10/27 18:43:16;;;;;;;;;;;15.20;99.90;;;13.21;95.36;101407.41;10369247;28;19938;-90
2022/10/27 18:48:19;;;;;;;;;;;15.20;99.90;;;13.20;95.41;101409.19;10328331;28;19934;-90
2022/10/27 18:53:22;;;;;;;;;;;15.20;99.90;;;13.20;95.27;101413.69;10382203;28;19933;-90
2022/10/27 18:58:25;;;;;;;;;;;15.20;99.90;;;13.19;95.42;101410.16;10323781;28;20021;-89
2022/10/27 19:03:27;;;;;;;;;;;15.10;99.90;;;13.15;95.36;101411.50;10344454;28;19934;-86
2022/10/27 19:08:30;;;;;;;;;;;15.10;99.90;;;13.15;95.28;101416.00;10316809;28;19934;-88
2022/10/27 19:13:34;;;;;;;;;;;15.10;99.90;;;13.12;95.46;101409.94;10331643;28;19941;-88
2022/10/27 19:18:37;;;;;;;;;;;15.10;99.90;;;13.11;95.37;101407.44;10344580;28;19941;-88
2022/10/27 19:23:40;;;;;;;;;;;15.10;99.90;;;13.12;95.34;101417.13;10330912;28;19940;-88
2022/10/27 19:28:44;;;;;;;;;;;15.10;99.90;;;13.07;95.13;101422.06;10339926;28;19934;-90
2022/10/27 19:33:49;;;;;;;;;;;15.00;99.90;;;13.01;95.00;101420.84;10335148;28;19941;-89
2022/10/27 19:38:53;;;;;;;;;;;15.00;99.90;;;13.00;94.77;101421.84;10347865;28;19941;-89
2022/10/27 19:43:57;;;;;;;;;;;15.00;99.90;;;12.96;94.61;101428.50;10352283;28;20448;-89
2022/10/27 19:49:01;;;;;;;;;;;14.90;99.90;;;12.96;94.64;101435.69;10344486;28;19934;-89
2022/10/27 19:54:04;;;;;;;;;;;14.90;99.90;;;12.94;94.87;101437.66;10333198;28;19941;-89
2022/10/27 19:59:10;;;;;;;;;;;14.90;99.90;;;12.95;94.95;101436.66;10315674;28;20023;-90
2022/10/27 20:04:13;;;;;;;;;;;14.90;99.90;;;12.94;94.83;101435.81;10333810;28;19957;-90
2022/10/27 20:09:19;;;;;;;;;;;14.90;99.90;;;12.94;94.70;101440.31;10306411;28;20394;-89
2022/10/27 20:14:22;;;;;;;;;;;14.90;99.90;;;12.93;94.72;101439.47;10333299;28;20381;-89
2022/10/27 20:19:32;;;;;;;;;;;14.90;99.90;;;12.91;94.66;101438.81;10323110;28;19956;-90
2022/10/27 20:24:40;;;;;;;;;;;14.90;99.90;;;12.90;94.73;101439.81;10339770;28;20313;-89
2022/10/27 20:29:43;;;;;;;;;;;14.90;99.90;;;12.85;94.56;101439.41;10336744;28;20428;-89
2022/10/27 20:34:45;;;;;;;;;;;14.90;99.90;;;12.80;95.03;101431.84;10320609;28;19934;-89
2022/10/27 20:39:48;;;;;;;;;;;14.90;99.90;;;12.77;94.70;101434.81;10336582;28;20024;-90
2022/10/27 20:44:56;;;;;;;;;;;14.80;99.90;;;12.74;94.93;101439.63;10342740;28;19958;-92
2022/10/27 20:49:59;;;;;;;;;;;14.80;99.90;;;12.71;94.93;101445.25;10329170;28;19940;-90
2022/10/27 20:55:02;;;;;;;;;;;14.70;99.90;;;12.69;95.15;101439.25;10352394;28;20004;-90
2022/10/27 21:00:06;;;;;;;;;;;14.70;99.90;;;12.63;95.26;101439.84;10347093;28;19933;-92
2022/10/27 21:05:09;;;;;;;;;;;14.70;99.90;;;12.65;95.41;101437.84;10339559;28;19961;-90
2022/10/27 21:10:12;;;;;;;;;;;14.70;99.90;;;12.65;95.29;101436.03;10321864;28;19934;-91
2022/10/27 21:15:15;;;;;;;;;;;14.70;99.90;;;12.65;95.47;101443.19;10337669;28;19940;-89
2022/10/27 21:20:18;;;;;;;;;;;14.70;99.90;;;12.65;95.59;101435.19;10342229;28;19933;-90
2022/10/27 21:25:21;;;;;;;;;;;14.60;99.90;;;12.59;95.41;101434.84;10342887;28;19941;-91
2022/10/27 21:30:24;;;;;;;;;;;14.60;99.90;;;12.56;95.33;101439.63;10340474;28;19933;-91
2022/10/27 21:35:27;;;;;;;;;;;14.60;99.90;;;12.54;95.45;101436.28;10343379;28;19934;-91
2022/10/27 21:40:30;;;;;;;;;;;14.50;99.90;;;12.52;95.42;101444.41;10342588;28;19941;-91
2022/10/27 21:45:33;;;;;;;;;;;14.60;99.90;;;12.51;95.42;101448.06;10346244;28;20457;-91
2022/10/27 21:50:37;;;;;;;;;;;14.60;99.90;;;12.52;95.40;101460.41;10339527;28;19934;-89
2022/10/27 21:55:40;;;;;;;;;;;14.60;99.90;;;12.50;95.27;101448.22;10343406;28;20008;-88
2022/10/27 22:00:43;;;;;;;;;;;14.50;99.90;;;12.48;95.54;101455.53;10350105;28;19934;-89
2022/10/27 22:05:53;;;;;;;;;;;14.50;99.90;;;12.48;95.41;101452.88;10343234;28;19934;-89
2022/10/27 22:11:12;;;;;;;;;;;14.50;99.90;;;12.49;95.61;101449.22;10346238;28;19964;-90
2022/10/27 22:16:18;;;;;;;;;;;14.50;99.90;;;12.50;95.55;101459.72;10312624;28;19934;-87
2022/10/27 22:21:22;;;;;;;;;;;14.50;99.90;;;12.50;95.52;101451.72;10341463;28;19977;-88
2022/10/27 22:26:25;;;;;;;;;;;14.50;99.90;;;12.50;95.45;101450.88;10349556;28;19934;-88
2022/10/27 22:31:30;;;;;;;;;;;14.50;99.90;;;12.46;95.57;101455.66;10323992;28;19942;-87
2022/10/27 22:36:33;;;;;;;;;;;14.50;99.90;;;12.46;95.56;101458.31;10351505;28;19981;-88
2022/10/27 22:41:36;;;;;;;;;;;14.40;99.90;;;12.39;95.11;101459.91;10355781;28;19942;-87
2022/10/27 22:46:40;;;;;;;;;;;14.40;99.90;;;12.35;95.58;101457.69;10350548;28;19973;-87
2022/10/27 22:51:43;;;;;;;;;;;14.40;99.90;;;12.34;95.92;101459.53;10330185;28;19934;-87
2022/10/27 22:56:46;;;;;;;;;;;14.30;99.90;;;12.29;95.77;101452.00;10339353;28;20394;-87